sensor_id;sensor_type;location;lat;lon;timestamp;temperature;humidity
64685;DHT22;51109;47.414;18.954;2022-11-20T00:01:19;2.00;99.90
64685;DHT22;51109;47.414;18.954;2022-11-20T00:03:45;2.00;99.90
64685;DHT22;51109;47.414;18.954;2022-11-20T00:06:13;2.00;99.90
64685;DHT22;51109;47.414;18.954;2022-11-20T00:08:39;2.00;99.90
64685;DHT22;51109;47.414;18.954;2022-11-20T00:11:07;2.00;99.90
64685;DHT22;51109;47.414;18.954;2022-11-20T00:13:34;1.90;99.90
64685;DHT22;51109;47.414;18.954;2022-11-20T00:16:02;1.90;99.90
64685;DHT22;51109;47.414;18.954;2022-11-20T00:18:29;1.80;99.90
64685;DHT22;51109;47.414;18.954;2022-11-20T00:21:02;1.90;99.90
64685;DHT22;51109;47.414;18.954;2022-11-20T00:23:28;1.90;99.90
64685;DHT22;51109;47.414;18.954;2022-11-20T00:25:54;1.90;99.90
64685;DHT22;51109;47.414;18.954;2022-11-20T00:28:19;1.90;99.90
64685;DHT22;51109;47.414;18.954;2022-11-20T00:30:45;1.80;99.90
64685;DHT22;51109;47.414;18.954;2022-11-20T00:33:11;1.90;99.90
64685;DHT22;51109;47.414;18.954;2022-11-20T00:35:37;1.90;99.90
64685;DHT22;51109;47.414;18.954;2022-11-20T00:38:03;1.90;99.90
64685;DHT22;51109;47.414;18.954;2022-11-20T00:40:29;1.90;99.90
64685;DHT22;51109;47.414;18.954;2022-11-20T00:42:55;1.90;99.90
64685;DHT22;51109;47.414;18.954;2022-11-20T00:45:21;1.90;99.90
64685;DHT22;51109;47.414;18.954;2022-11-20T00:47:46;1.80;99.90
64685;DHT22;51109;47.414;18.954;2022-11-20T00:50:12;1.80;99.90
64685;DHT22;51109;47.414;18.954;2022-11-20T00:52:38;1.80;99.90
64685;DHT22;51109;47.414;18.954;2022-11-20T00:55:04;1.90;99.90
64685;DHT22;51109;47.414;18.954;2022-11-20T00:57:31;1.90;99.90
64685;DHT22;51109;47.414;18.954;2022-11-20T00:59:57;1.90;99.90
64685;DHT22;51109;47.414;18.954;2022-11-20T01:02:23;1.90;99.90
64685;DHT22;51109;47.414;18.954;2022-11-20T01:04:49;1.90;99.90
64685;DHT22;51109;47.414;18.954;2022-11-20T01:07:14;1.90;99.90
64685;DHT22;51109;47.414;18.954;2022-11-20T01:09:40;1.80;99.90
64685;DHT22;51109;47.414;18.954;2022-11-20T01:12:06;1.80;99.90
64685;DHT22;51109;47.414;18.954;2022-11-20T01:14:32;1.80;99.90
64685;DHT22;51109;47.414;18.954;2022-11-20T01:16:58;1.80;99.90
64685;DHT22;51109;47.414;18.954;2022-11-20T01:19:24;1.80;99.90
64685;DHT22;51109;47.414;18.954;2022-11-20T01:21:52;1.80;99.90
64685;DHT22;51109;47.414;18.954;2022-11-20T01:24:20;1.80;99.90
64685;DHT22;51109;47.414;18.954;2022-11-20T01:26:48;1.80;99.90
64685;DHT22;51109;47.414;18.954;2022-11-20T01:29:19;1.80;99.90
64685;DHT22;51109;47.414;18.954;2022-11-20T01:31:45;1.80;99.90
64685;DHT22;51109;47.414;18.954;2022-11-20T01:34:16;1.70;99.90
64685;DHT22;51109;47.414;18.954;2022-11-20T01:36:43;1.70;99.90
64685;DHT22;51109;47.414;18.954;2022-11-20T01:39:13;1.80;99.90
64685;DHT22;51109;47.414;18.954;2022-11-20T01:41:39;1.80;99.90
64685;DHT22;51109;47.414;18.954;2022-11-20T01:44:56;1.80;99.90
64685;DHT22;51109;47.414;18.954;2022-11-20T01:47:39;1.80;99.90
64685;DHT22;51109;47.414;18.954;2022-11-20T01:50:17;1.90;99.90
64685;DHT22;51109;47.414;18.954;2022-11-20T01:53:05;1.90;99.90
64685;DHT22;51109;47.414;18.954;2022-11-20T01:55:36;1.80;99.90
64685;DHT22;51109;47.414;18.954;2022-11-20T01:58:04;1.80;99.90
64685;DHT22;51109;47.414;18.954;2022-11-20T02:03:00;1.80;99.90
64685;DHT22;51109;47.414;18.954;2022-11-20T02:08:18;1.90;99.90
64685;DHT22;51109;47.414;18.954;2022-11-20T02:10:44;1.90;99.90
64685;DHT22;51109;47.414;18.954;2022-11-20T02:13:10;1.90;99.90
64685;DHT22;51109;47.414;18.954;2022-11-20T02:15:55;1.90;99.90
64685;DHT22;51109;47.414;18.954;2022-11-20T02:18:21;1.90;99.90
64685;DHT22;51109;47.414;18.954;2022-11-20T02:20:50;1.90;99.90
64685;DHT22;51109;47.414;18.954;2022-11-20T02:23:32;1.90;99.90
64685;DHT22;51109;47.414;18.954;2022-11-20T02:26:01;1.90;99.90
64685;DHT22;51109;47.414;18.954;2022-11-20T02:28:28;1.90;99.90
64685;DHT22;51109;47.414;18.954;2022-11-20T02:30:54;1.80;99.90
64685;DHT22;51109;47.414;18.954;2022-11-20T02:33:19;1.80;99.90
64685;DHT22;51109;47.414;18.954;2022-11-20T02:35:46;1.80;99.90
64685;DHT22;51109;47.414;18.954;2022-11-20T02:38:13;1.80;99.90
64685;DHT22;51109;47.414;18.954;2022-11-20T02:40:40;1.80;99.90
64685;DHT22;51109;47.414;18.954;2022-11-20T02:43:07;1.70;99.90
64685;DHT22;51109;47.414;18.954;2022-11-20T02:45:33;1.80;99.90
64685;DHT22;51109;47.414;18.954;2022-11-20T02:47:59;1.80;99.90
64685;DHT22;51109;47.414;18.954;2022-11-20T02:50:26;1.80;99.90
64685;DHT22;51109;47.414;18.954;2022-11-20T02:52:52;1.80;99.90
64685;DHT22;51109;47.414;18.954;2022-11-20T02:55:18;1.90;99.90
64685;DHT22;51109;47.414;18.954;2022-11-20T02:57:44;1.90;99.90
64685;DHT22;51109;47.414;18.954;2022-11-20T03:00:10;1.90;99.90
64685;DHT22;51109;47.414;18.954;2022-11-20T03:02:36;1.90;99.90
64685;DHT22;51109;47.414;18.954;2022-11-20T03:05:02;1.90;99.90
64685;DHT22;51109;47.414;18.954;2022-11-20T03:07:28;1.90;99.90
64685;DHT22;51109;47.414;18.954;2022-11-20T03:09:54;1.90;99.90
64685;DHT22;51109;47.414;18.954;2022-11-20T03:12:21;1.90;99.90
64685;DHT22;51109;47.414;18.954;2022-11-20T03:14:47;1.90;99.90
64685;DHT22;51109;47.414;18.954;2022-11-20T03:17:13;1.90;99.90
64685;DHT22;51109;47.414;18.954;2022-11-20T03:19:38;1.90;99.90
64685;DHT22;51109;47.414;18.954;2022-11-20T03:22:04;1.90;99.90
64685;DHT22;51109;47.414;18.954;2022-11-20T03:24:30;1.90;99.90
64685;DHT22;51109;47.414;18.954;2022-11-20T03:26:56;1.90;99.90
64685;DHT22;51109;47.414;18.954;2022-11-20T03:29:22;2.00;99.90
64685;DHT22;51109;47.414;18.954;2022-11-20T03:31:48;1.90;99.90
64685;DHT22;51109;47.414;18.954;2022-11-20T03:34:14;1.90;99.90
64685;DHT22;51109;47.414;18.954;2022-11-20T03:36:41;2.00;99.90
64685;DHT22;51109;47.414;18.954;2022-11-20T03:39:07;2.00;99.90
64685;DHT22;51109;47.414;18.954;2022-11-20T03:41:38;2.00;99.90
64685;DHT22;51109;47.414;18.954;2022-11-20T03:44:06;2.00;99.90
64685;DHT22;51109;47.414;18.954;2022-11-20T03:46:32;2.00;99.90
64685;DHT22;51109;47.414;18.954;2022-11-20T03:48:59;2.00;99.90
64685;DHT22;51109;47.414;18.954;2022-11-20T03:51:27;2.00;99.90
64685;DHT22;51109;47.414;18.954;2022-11-20T03:53:55;2.00;99.90
64685;DHT22;51109;47.414;18.954;2022-11-20T03:56:26;2.00;99.90
64685;DHT22;51109;47.414;18.954;2022-11-20T03:58:53;2.10;99.90
64685;DHT22;51109;47.414;18.954;2022-11-20T04:01:25;2.10;99.90
64685;DHT22;51109;47.414;18.954;2022-11-20T04:03:55;2.10;99.90
64685;DHT22;51109;47.414;18.954;2022-11-20T04:06:24;2.10;99.90
64685;DHT22;51109;47.414;18.954;2022-11-20T04:08:50;2.10;99.90
64685;DHT22;51109;47.414;18.954;2022-11-20T04:11:19;2.10;99.90
64685;DHT22;51109;47.414;18.954;2022-11-20T04:13:48;2.10;99.90
64685;DHT22;51109;47.414;18.954;2022-11-20T04:16:14;2.10;99.90
64685;DHT22;51109;47.414;18.954;2022-11-20T04:18:40;2.10;99.90
64685;DHT22;51109;47.414;18.954;2022-11-20T04:21:07;2.20;99.90
64685;DHT22;51109;47.414;18.954;2022-11-20T04:23:33;2.20;99.90
64685;DHT22;51109;47.414;18.954;2022-11-20T04:26:07;2.20;99.90
64685;DHT22;51109;47.414;18.954;2022-11-20T04:28:33;2.20;99.90
64685;DHT22;51109;47.414;18.954;2022-11-20T04:31:19;2.20;99.90
64685;DHT22;51109;47.414;18.954;2022-11-20T04:33:46;2.20;99.90
64685;DHT22;51109;47.414;18.954;2022-11-20T04:36:22;2.30;99.90
64685;DHT22;51109;47.414;18.954;2022-11-20T04:38:56;2.30;99.90
64685;DHT22;51109;47.414;18.954;2022-11-20T04:41:24;2.40;99.90
64685;DHT22;51109;47.414;18.954;2022-11-20T04:43:53;2.40;99.90
64685;DHT22;51109;47.414;18.954;2022-11-20T04:46:20;2.30;99.90
64685;DHT22;51109;47.414;18.954;2022-11-20T04:48:47;2.30;99.90
64685;DHT22;51109;47.414;18.954;2022-11-20T04:51:13;2.40;99.90
64685;DHT22;51109;47.414;18.954;2022-11-20T04:53:39;2.40;99.90
64685;DHT22;51109;47.414;18.954;2022-11-20T04:56:06;2.40;99.90
64685;DHT22;51109;47.414;18.954;2022-11-20T04:58:33;2.50;99.90
64685;DHT22;51109;47.414;18.954;2022-11-20T05:01:11;2.50;99.90
64685;DHT22;51109;47.414;18.954;2022-11-20T05:03:38;2.50;99.90
64685;DHT22;51109;47.414;18.954;2022-11-20T05:06:05;2.50;99.90
64685;DHT22;51109;47.414;18.954;2022-11-20T05:08:31;2.50;99.90
64685;DHT22;51109;47.414;18.954;2022-11-20T05:11:08;2.50;99.90
64685;DHT22;51109;47.414;18.954;2022-11-20T05:13:35;2.50;99.90
64685;DHT22;51109;47.414;18.954;2022-11-20T05:16:05;2.60;99.90
64685;DHT22;51109;47.414;18.954;2022-11-20T05:18:33;2.60;99.90
64685;DHT22;51109;47.414;18.954;2022-11-20T05:20:59;2.60;99.90
64685;DHT22;51109;47.414;18.954;2022-11-20T05:23:25;2.60;99.90
64685;DHT22;51109;47.414;18.954;2022-11-20T05:25:55;2.70;99.90
64685;DHT22;51109;47.414;18.954;2022-11-20T05:28:21;2.70;99.90
64685;DHT22;51109;47.414;18.954;2022-11-20T05:30:47;2.70;99.90
64685;DHT22;51109;47.414;18.954;2022-11-20T05:33:13;2.60;99.90
64685;DHT22;51109;47.414;18.954;2022-11-20T05:35:39;2.50;99.90
64685;DHT22;51109;47.414;18.954;2022-11-20T05:38:05;2.50;99.90
64685;DHT22;51109;47.414;18.954;2022-11-20T05:40:31;2.60;99.90
64685;DHT22;51109;47.414;18.954;2022-11-20T05:42:56;2.60;99.90
64685;DHT22;51109;47.414;18.954;2022-11-20T05:45:22;2.60;99.90
64685;DHT22;51109;47.414;18.954;2022-11-20T05:47:48;2.60;99.90
64685;DHT22;51109;47.414;18.954;2022-11-20T05:50:15;2.60;99.90
64685;DHT22;51109;47.414;18.954;2022-11-20T05:52:41;2.60;99.90
64685;DHT22;51109;47.414;18.954;2022-11-20T05:55:07;2.70;99.90
64685;DHT22;51109;47.414;18.954;2022-11-20T05:57:33;2.70;99.90
64685;DHT22;51109;47.414;18.954;2022-11-20T05:59:59;2.70;99.90
64685;DHT22;51109;47.414;18.954;2022-11-20T06:02:25;2.70;99.90
64685;DHT22;51109;47.414;18.954;2022-11-20T06:04:51;2.70;99.90
64685;DHT22;51109;47.414;18.954;2022-11-20T06:07:17;2.70;99.90
64685;DHT22;51109;47.414;18.954;2022-11-20T06:09:42;2.70;99.90
64685;DHT22;51109;47.414;18.954;2022-11-20T06:12:08;2.70;99.90
64685;DHT22;51109;47.414;18.954;2022-11-20T06:14:34;2.60;99.90
64685;DHT22;51109;47.414;18.954;2022-11-20T06:17:00;2.60;99.90
64685;DHT22;51109;47.414;18.954;2022-11-20T06:19:26;2.70;99.90
64685;DHT22;51109;47.414;18.954;2022-11-20T06:21:52;2.70;99.90
64685;DHT22;51109;47.414;18.954;2022-11-20T06:24:18;2.60;99.90
64685;DHT22;51109;47.414;18.954;2022-11-20T06:26:44;2.70;99.90
64685;DHT22;51109;47.414;18.954;2022-11-20T06:29:10;2.70;99.90
64685;DHT22;51109;47.414;18.954;2022-11-20T06:31:36;2.70;99.90
64685;DHT22;51109;47.414;18.954;2022-11-20T06:34:04;2.70;99.90
64685;DHT22;51109;47.414;18.954;2022-11-20T06:36:32;2.70;99.90
64685;DHT22;51109;47.414;18.954;2022-11-20T06:38:58;2.70;99.90
64685;DHT22;51109;47.414;18.954;2022-11-20T06:41:24;2.70;99.90
64685;DHT22;51109;47.414;18.954;2022-11-20T06:43:50;3.20;99.90
64685;DHT22;51109;47.414;18.954;2022-11-20T06:46:17;2.80;99.90
64685;DHT22;51109;47.414;18.954;2022-11-20T06:48:44;2.80;99.90
64685;DHT22;51109;47.414;18.954;2022-11-20T06:51:10;2.80;99.90
64685;DHT22;51109;47.414;18.954;2022-11-20T06:53:37;2.90;99.90
64685;DHT22;51109;47.414;18.954;2022-11-20T06:56:04;2.90;99.90
64685;DHT22;51109;47.414;18.954;2022-11-20T06:58:32;2.90;99.90
64685;DHT22;51109;47.414;18.954;2022-11-20T07:00:59;3.00;99.90
64685;DHT22;51109;47.414;18.954;2022-11-20T07:03:25;3.00;99.90
64685;DHT22;51109;47.414;18.954;2022-11-20T07:05:51;3.00;99.90
64685;DHT22;51109;47.414;18.954;2022-11-20T07:08:17;2.90;99.90
64685;DHT22;51109;47.414;18.954;2022-11-20T07:10:43;3.00;99.90
64685;DHT22;51109;47.414;18.954;2022-11-20T07:13:09;3.10;99.90
64685;DHT22;51109;47.414;18.954;2022-11-20T07:15:34;3.10;99.90
64685;DHT22;51109;47.414;18.954;2022-11-20T07:18:01;3.10;99.90
64685;DHT22;51109;47.414;18.954;2022-11-20T07:20:27;3.20;99.90
64685;DHT22;51109;47.414;18.954;2022-11-20T07:22:57;3.30;99.90
64685;DHT22;51109;47.414;18.954;2022-11-20T07:25:27;3.30;99.90
64685;DHT22;51109;47.414;18.954;2022-11-20T07:27:59;3.30;99.90
64685;DHT22;51109;47.414;18.954;2022-11-20T07:30:26;3.30;99.90
64685;DHT22;51109;47.414;18.954;2022-11-20T07:32:53;3.30;99.90
64685;DHT22;51109;47.414;18.954;2022-11-20T07:35:19;3.40;99.90
64685;DHT22;51109;47.414;18.954;2022-11-20T07:37:45;3.20;99.90
64685;DHT22;51109;47.414;18.954;2022-11-20T07:40:12;3.10;99.90
64685;DHT22;51109;47.414;18.954;2022-11-20T07:42:38;3.00;99.90
64685;DHT22;51109;47.414;18.954;2022-11-20T07:45:05;2.90;99.90
64685;DHT22;51109;47.414;18.954;2022-11-20T07:47:37;2.90;99.90
64685;DHT22;51109;47.414;18.954;2022-11-20T07:50:03;2.90;99.90
64685;DHT22;51109;47.414;18.954;2022-11-20T07:52:29;2.80;99.90
64685;DHT22;51109;47.414;18.954;2022-11-20T07:54:54;2.90;99.90
64685;DHT22;51109;47.414;18.954;2022-11-20T07:57:20;2.90;99.90
64685;DHT22;51109;47.414;18.954;2022-11-20T07:59:46;2.90;99.90
64685;DHT22;51109;47.414;18.954;2022-11-20T08:02:12;2.90;99.90
64685;DHT22;51109;47.414;18.954;2022-11-20T08:04:38;2.90;99.90
64685;DHT22;51109;47.414;18.954;2022-11-20T08:07:04;2.90;99.90
64685;DHT22;51109;47.414;18.954;2022-11-20T08:09:30;2.90;99.90
64685;DHT22;51109;47.414;18.954;2022-11-20T08:11:56;3.40;99.90
64685;DHT22;51109;47.414;18.954;2022-11-20T08:14:40;3.10;99.90
64685;DHT22;51109;47.414;18.954;2022-11-20T08:17:06;3.20;99.90
64685;DHT22;51109;47.414;18.954;2022-11-20T08:19:32;3.20;99.90
64685;DHT22;51109;47.414;18.954;2022-11-20T08:21:58;3.30;99.90
64685;DHT22;51109;47.414;18.954;2022-11-20T08:24:24;3.40;99.90
64685;DHT22;51109;47.414;18.954;2022-11-20T08:26:52;3.50;99.90
64685;DHT22;51109;47.414;18.954;2022-11-20T08:29:18;3.70;99.90
64685;DHT22;51109;47.414;18.954;2022-11-20T08:31:44;3.70;99.90
64685;DHT22;51109;47.414;18.954;2022-11-20T08:34:10;3.80;99.90
64685;DHT22;51109;47.414;18.954;2022-11-20T08:36:36;3.90;99.90
64685;DHT22;51109;47.414;18.954;2022-11-20T08:39:02;4.10;99.90
64685;DHT22;51109;47.414;18.954;2022-11-20T08:41:29;4.20;99.90
64685;DHT22;51109;47.414;18.954;2022-11-20T08:44:06;4.30;99.90
64685;DHT22;51109;47.414;18.954;2022-11-20T08:46:50;4.20;99.90
64685;DHT22;51109;47.414;18.954;2022-11-20T08:49:16;4.20;99.90
64685;DHT22;51109;47.414;18.954;2022-11-20T08:51:43;4.30;99.90
64685;DHT22;51109;47.414;18.954;2022-11-20T08:54:09;4.30;99.90
64685;DHT22;51109;47.414;18.954;2022-11-20T08:56:35;4.20;99.90
64685;DHT22;51109;47.414;18.954;2022-11-20T08:59:01;4.20;99.90
64685;DHT22;51109;47.414;18.954;2022-11-20T09:01:28;4.10;99.90
64685;DHT22;51109;47.414;18.954;2022-11-20T09:03:57;4.10;99.90
64685;DHT22;51109;47.414;18.954;2022-11-20T09:06:25;4.10;99.90
64685;DHT22;51109;47.414;18.954;2022-11-20T09:08:54;4.20;99.90
64685;DHT22;51109;47.414;18.954;2022-11-20T09:11:20;4.30;99.90
64685;DHT22;51109;47.414;18.954;2022-11-20T09:13:47;4.50;99.90
64685;DHT22;51109;47.414;18.954;2022-11-20T09:16:12;4.50;99.90
64685;DHT22;51109;47.414;18.954;2022-11-20T09:18:38;4.50;99.90
64685;DHT22;51109;47.414;18.954;2022-11-20T09:21:10;4.50;99.90
64685;DHT22;51109;47.414;18.954;2022-11-20T09:23:37;4.60;99.90
64685;DHT22;51109;47.414;18.954;2022-11-20T09:26:05;4.60;99.90
64685;DHT22;51109;47.414;18.954;2022-11-20T09:28:32;4.70;99.90
64685;DHT22;51109;47.414;18.954;2022-11-20T09:30:59;4.70;99.90
64685;DHT22;51109;47.414;18.954;2022-11-20T09:33:25;4.70;99.90
64685;DHT22;51109;47.414;18.954;2022-11-20T09:35:51;4.60;99.90
64685;DHT22;51109;47.414;18.954;2022-11-20T09:38:17;4.70;99.90
64685;DHT22;51109;47.414;18.954;2022-11-20T09:41:01;4.70;99.90
64685;DHT22;51109;47.414;18.954;2022-11-20T09:44:25;4.80;99.90
64685;DHT22;51109;47.414;18.954;2022-11-20T09:46:58;4.80;99.90
64685;DHT22;51109;47.414;18.954;2022-11-20T09:52:01;4.90;99.90
64685;DHT22;51109;47.414;18.954;2022-11-20T09:54:35;4.90;99.90
64685;DHT22;51109;47.414;18.954;2022-11-20T09:57:23;4.90;99.90
64685;DHT22;51109;47.414;18.954;2022-11-20T09:59:59;4.90;99.90
64685;DHT22;51109;47.414;18.954;2022-11-20T10:02:34;4.90;99.90
64685;DHT22;51109;47.414;18.954;2022-11-20T10:10:54;5.00;99.90
64685;DHT22;51109;47.414;18.954;2022-11-20T10:21:34;5.00;99.90
64685;DHT22;51109;47.414;18.954;2022-11-20T10:29:15;5.10;99.90
64685;DHT22;51109;47.414;18.954;2022-11-20T10:31:56;5.10;99.90
64685;DHT22;51109;47.414;18.954;2022-11-20T10:34:59;5.20;99.90
64685;DHT22;51109;47.414;18.954;2022-11-20T10:37:29;5.20;99.90
64685;DHT22;51109;47.414;18.954;2022-11-20T10:40:23;5.20;99.90
64685;DHT22;51109;47.414;18.954;2022-11-20T10:42:53;5.30;99.90
64685;DHT22;51109;47.414;18.954;2022-11-20T10:47:56;5.40;99.90
64685;DHT22;51109;47.414;18.954;2022-11-20T10:50:26;5.50;99.90
64685;DHT22;51109;47.414;18.954;2022-11-20T10:55:33;5.70;99.90
64685;DHT22;51109;47.414;18.954;2022-11-20T10:58:13;5.70;99.90
64685;DHT22;51109;47.414;18.954;2022-11-20T11:00:40;5.80;99.90
64685;DHT22;51109;47.414;18.954;2022-11-20T11:03:26;5.80;99.90
64685;DHT22;51109;47.414;18.954;2022-11-20T11:08:56;5.70;99.90
64685;DHT22;51109;47.414;18.954;2022-11-20T11:11:30;5.70;99.90
64685;DHT22;51109;47.414;18.954;2022-11-20T11:14:12;5.70;99.90
64685;DHT22;51109;47.414;18.954;2022-11-20T11:19:15;5.80;99.90
64685;DHT22;51109;47.414;18.954;2022-11-20T11:27:00;5.90;99.90
64685;DHT22;51109;47.414;18.954;2022-11-20T11:29:31;5.90;99.90
64685;DHT22;51109;47.414;18.954;2022-11-20T11:32:08;5.90;99.90
64685;DHT22;51109;47.414;18.954;2022-11-20T11:34:34;6.00;99.90
64685;DHT22;51109;47.414;18.954;2022-11-20T11:37:01;6.00;99.90
64685;DHT22;51109;47.414;18.954;2022-11-20T11:39:30;6.00;99.90
64685;DHT22;51109;47.414;18.954;2022-11-20T11:41:58;5.90;99.90
64685;DHT22;51109;47.414;18.954;2022-11-20T11:44:31;5.90;99.90
64685;DHT22;51109;47.414;18.954;2022-11-20T11:47:33;5.90;99.90
64685;DHT22;51109;47.414;18.954;2022-11-20T11:50:25;5.80;99.90
64685;DHT22;51109;47.414;18.954;2022-11-20T11:53:16;5.80;99.90
64685;DHT22;51109;47.414;18.954;2022-11-20T11:59:00;5.90;99.90
64685;DHT22;51109;47.414;18.954;2022-11-20T12:01:39;6.00;99.90
64685;DHT22;51109;47.414;18.954;2022-11-20T12:06:58;6.10;99.90
64685;DHT22;51109;47.414;18.954;2022-11-20T12:09:37;6.10;99.90
64685;DHT22;51109;47.414;18.954;2022-11-20T12:12:12;6.10;99.90
64685;DHT22;51109;47.414;18.954;2022-11-20T12:14:44;6.20;99.90
64685;DHT22;51109;47.414;18.954;2022-11-20T12:17:13;6.20;99.90
64685;DHT22;51109;47.414;18.954;2022-11-20T12:19:40;6.20;99.90
64685;DHT22;51109;47.414;18.954;2022-11-20T12:30:15;6.10;99.90
64685;DHT22;51109;47.414;18.954;2022-11-20T12:38:39;6.20;99.90
64685;DHT22;51109;47.414;18.954;2022-11-20T12:50:08;6.30;99.90
64685;DHT22;51109;47.414;18.954;2022-11-20T12:52:53;6.30;99.90
64685;DHT22;51109;47.414;18.954;2022-11-20T12:55:31;6.30;99.90
64685;DHT22;51109;47.414;18.954;2022-11-20T13:00:56;6.30;99.90
64685;DHT22;51109;47.414;18.954;2022-11-20T13:03:49;6.30;99.90
64685;DHT22;51109;47.414;18.954;2022-11-20T13:06:19;6.20;99.90
64685;DHT22;51109;47.414;18.954;2022-11-20T13:08:55;6.20;99.90
64685;DHT22;51109;47.414;18.954;2022-11-20T13:16:48;6.20;99.90
64685;DHT22;51109;47.414;18.954;2022-11-20T13:19:16;6.30;99.90
64685;DHT22;51109;47.414;18.954;2022-11-20T13:21:45;6.20;99.90
64685;DHT22;51109;47.414;18.954;2022-11-20T13:29:44;6.30;99.90
64685;DHT22;51109;47.414;18.954;2022-11-20T13:32:20;6.30;99.90
64685;DHT22;51109;47.414;18.954;2022-11-20T13:34:54;6.20;99.90
64685;DHT22;51109;47.414;18.954;2022-11-20T13:37:33;6.30;99.90
64685;DHT22;51109;47.414;18.954;2022-11-20T13:47:50;6.20;99.90
64685;DHT22;51109;47.414;18.954;2022-11-20T13:50:17;6.20;99.90
64685;DHT22;51109;47.414;18.954;2022-11-20T13:53:01;6.20;99.90
64685;DHT22;51109;47.414;18.954;2022-11-20T14:01:33;6.20;99.90
64685;DHT22;51109;47.414;18.954;2022-11-20T14:04:06;6.20;99.90
64685;DHT22;51109;47.414;18.954;2022-11-20T14:06:45;6.20;99.90
64685;DHT22;51109;47.414;18.954;2022-11-20T14:09:25;6.10;99.90
64685;DHT22;51109;47.414;18.954;2022-11-20T14:11:51;6.10;99.90
64685;DHT22;51109;47.414;18.954;2022-11-20T14:14:20;6.10;99.90
64685;DHT22;51109;47.414;18.954;2022-11-20T14:16:48;6.20;99.90
64685;DHT22;51109;47.414;18.954;2022-11-20T14:19:32;6.20;99.90
64685;DHT22;51109;47.414;18.954;2022-11-20T14:24:39;6.10;99.90
64685;DHT22;51109;47.414;18.954;2022-11-20T14:27:16;6.10;99.90
64685;DHT22;51109;47.414;18.954;2022-11-20T14:29:45;6.10;99.90
64685;DHT22;51109;47.414;18.954;2022-11-20T14:32:11;6.10;99.90
64685;DHT22;51109;47.414;18.954;2022-11-20T14:34:41;6.10;99.90
64685;DHT22;51109;47.414;18.954;2022-11-20T14:37:17;6.10;99.90
64685;DHT22;51109;47.414;18.954;2022-11-20T14:39:54;6.00;99.90
64685;DHT22;51109;47.414;18.954;2022-11-20T14:42:23;6.00;99.90
64685;DHT22;51109;47.414;18.954;2022-11-20T14:44:51;5.90;99.90
64685;DHT22;51109;47.414;18.954;2022-11-20T14:47:23;5.90;99.90
64685;DHT22;51109;47.414;18.954;2022-11-20T14:49:51;5.90;99.90
64685;DHT22;51109;47.414;18.954;2022-11-20T14:52:19;5.80;99.90
64685;DHT22;51109;47.414;18.954;2022-11-20T14:57:27;5.80;99.90
64685;DHT22;51109;47.414;18.954;2022-11-20T15:02:47;5.70;99.90
64685;DHT22;51109;47.414;18.954;2022-11-20T15:05:15;5.50;99.90
64685;DHT22;51109;47.414;18.954;2022-11-20T15:07:48;5.50;99.90
64685;DHT22;51109;47.414;18.954;2022-11-20T15:10:26;5.40;99.90
64685;DHT22;51109;47.414;18.954;2022-11-20T15:13:00;5.40;99.90
64685;DHT22;51109;47.414;18.954;2022-11-20T15:15:35;5.30;99.90
64685;DHT22;51109;47.414;18.954;2022-11-20T15:18:02;5.30;99.90
64685;DHT22;51109;47.414;18.954;2022-11-20T15:20:31;5.20;99.90
64685;DHT22;51109;47.414;18.954;2022-11-20T15:22:58;5.10;99.90
64685;DHT22;51109;47.414;18.954;2022-11-20T15:25:24;5.00;99.90
64685;DHT22;51109;47.414;18.954;2022-11-20T15:28:00;5.00;99.90
64685;DHT22;51109;47.414;18.954;2022-11-20T15:30:26;4.80;99.90
64685;DHT22;51109;47.414;18.954;2022-11-20T15:32:53;4.80;99.90
64685;DHT22;51109;47.414;18.954;2022-11-20T15:35:19;4.70;99.90
64685;DHT22;51109;47.414;18.954;2022-11-20T15:37:45;4.70;99.90
64685;DHT22;51109;47.414;18.954;2022-11-20T15:40:11;4.70;99.90
64685;DHT22;51109;47.414;18.954;2022-11-20T15:42:38;4.70;99.90
64685;DHT22;51109;47.414;18.954;2022-11-20T15:45:04;4.60;99.90
64685;DHT22;51109;47.414;18.954;2022-11-20T15:47:33;4.60;99.90
64685;DHT22;51109;47.414;18.954;2022-11-20T15:50:00;4.40;99.90
64685;DHT22;51109;47.414;18.954;2022-11-20T15:52:27;4.30;99.90
64685;DHT22;51109;47.414;18.954;2022-11-20T15:54:53;4.30;99.90
64685;DHT22;51109;47.414;18.954;2022-11-20T15:57:19;4.20;99.90
64685;DHT22;51109;47.414;18.954;2022-11-20T15:59:45;4.20;99.90
64685;DHT22;51109;47.414;18.954;2022-11-20T16:02:12;4.10;99.90
64685;DHT22;51109;47.414;18.954;2022-11-20T16:04:38;4.10;99.90
64685;DHT22;51109;47.414;18.954;2022-11-20T16:07:04;4.00;99.90
64685;DHT22;51109;47.414;18.954;2022-11-20T16:09:31;4.00;99.90
64685;DHT22;51109;47.414;18.954;2022-11-20T16:11:57;3.90;99.90
64685;DHT22;51109;47.414;18.954;2022-11-20T16:14:26;3.90;99.90
64685;DHT22;51109;47.414;18.954;2022-11-20T16:17:12;3.90;99.90
64685;DHT22;51109;47.414;18.954;2022-11-20T16:19:38;3.80;99.90
64685;DHT22;51109;47.414;18.954;2022-11-20T16:22:04;3.80;99.90
64685;DHT22;51109;47.414;18.954;2022-11-20T16:24:30;3.80;99.90
64685;DHT22;51109;47.414;18.954;2022-11-20T16:26:56;3.80;99.90
64685;DHT22;51109;47.414;18.954;2022-11-20T16:29:23;3.90;99.90
64685;DHT22;51109;47.414;18.954;2022-11-20T16:31:49;3.90;99.90
64685;DHT22;51109;47.414;18.954;2022-11-20T16:34:16;4.00;99.90
64685;DHT22;51109;47.414;18.954;2022-11-20T16:36:43;4.10;99.90
64685;DHT22;51109;47.414;18.954;2022-11-20T16:39:11;4.10;99.90
64685;DHT22;51109;47.414;18.954;2022-11-20T16:41:37;4.10;99.90
64685;DHT22;51109;47.414;18.954;2022-11-20T16:44:08;4.10;99.90
64685;DHT22;51109;47.414;18.954;2022-11-20T16:46:36;4.00;99.90
64685;DHT22;51109;47.414;18.954;2022-11-20T16:49:05;4.00;99.90
64685;DHT22;51109;47.414;18.954;2022-11-20T16:51:34;4.00;99.90
64685;DHT22;51109;47.414;18.954;2022-11-20T16:54:05;4.00;99.90
64685;DHT22;51109;47.414;18.954;2022-11-20T16:56:31;4.00;99.90
64685;DHT22;51109;47.414;18.954;2022-11-20T16:58:58;3.90;99.90
64685;DHT22;51109;47.414;18.954;2022-11-20T17:01:27;3.90;99.90
64685;DHT22;51109;47.414;18.954;2022-11-20T17:03:58;3.90;99.90
64685;DHT22;51109;47.414;18.954;2022-11-20T17:06:26;3.80;99.90
64685;DHT22;51109;47.414;18.954;2022-11-20T17:08:54;3.70;99.90
64685;DHT22;51109;47.414;18.954;2022-11-20T17:11:20;3.60;99.90
64685;DHT22;51109;47.414;18.954;2022-11-20T17:13:46;3.50;99.90
64685;DHT22;51109;47.414;18.954;2022-11-20T17:16:15;3.40;99.90
64685;DHT22;51109;47.414;18.954;2022-11-20T17:18:42;3.30;99.90
64685;DHT22;51109;47.414;18.954;2022-11-20T17:21:09;3.20;99.90
64685;DHT22;51109;47.414;18.954;2022-11-20T17:23:41;3.20;99.90
64685;DHT22;51109;47.414;18.954;2022-11-20T17:26:15;3.20;99.90
64685;DHT22;51109;47.414;18.954;2022-11-20T17:29:05;3.10;99.90
64685;DHT22;51109;47.414;18.954;2022-11-20T17:31:33;3.10;99.90